createdAt,value
2019-02-09T00:26:01.918Z,54.70
2019-02-09T00:56:03.550Z,55.60
2019-02-09T01:26:04.852Z,56.50
2019-02-09T01:56:06.191Z,55.20
2019-02-09T02:26:07.585Z,52.10
2019-02-09T02:56:08.959Z,54.90
2019-02-09T03:26:10.304Z,57.70
2019-02-09T03:56:11.635Z,64.90
2019-02-09T04:26:12.989Z,62.30
2019-02-09T04:56:14.345Z,55.60
2019-02-09T05:26:15.715Z,60.30
2019-02-09T05:56:17.123Z,51.90
2019-02-09T06:26:18.482Z,55.80
2019-02-09T06:56:19.842Z,56.10
2019-02-09T07:26:21.195Z,57.10
2019-02-09T07:56:22.646Z,60.60
2019-02-09T08:26:24.020Z,63.90
2019-02-09T08:56:25.403Z,67.10
2019-02-09T09:26:26.730Z,70.90
2019-02-09T09:56:28.077Z,71.50
2019-02-09T10:26:30.291Z,73.90
2019-02-09T10:56:31.635Z,69.70
2019-02-09T11:26:33.259Z,66.40
2019-02-09T11:56:36.295Z,66.70
2019-02-09T12:26:37.767Z,65.20
2019-02-09T12:56:39.072Z,64.50
2019-02-09T13:26:40.489Z,66.30
2019-02-09T13:56:41.824Z,64.80
2019-02-09T14:26:43.173Z,66.60
2019-02-09T14:56:44.613Z,68.80
2019-02-09T15:26:46.221Z,66.30
2019-02-09T15:56:47.569Z,65.90
2019-02-09T16:26:48.956Z,69.10
2019-02-09T16:56:50.288Z,70.20
2019-02-09T17:26:51.777Z,71.40
2019-02-09T17:56:53.178Z,72.80
2019-02-09T18:26:54.572Z,73.50
2019-02-09T18:56:55.946Z,75.40
2019-02-09T19:26:57.301Z,72.80
2019-02-09T19:56:58.715Z,72.60
2019-02-09T20:27:00.499Z,72.20
2019-02-09T20:57:01.885Z,74.10
2019-02-09T21:27:03.480Z,74.20
2019-02-09T21:57:04.880Z,75.20
2019-02-09T22:27:06.217Z,75.20
2019-02-09T22:57:07.567Z,75.90
2019-02-09T23:27:08.935Z,73.40
2019-02-09T23:57:10.318Z,73.60
